createdAt,value
2023-09-27T00:01:28.926Z,99965.11
2023-09-27T00:04:01.177Z,99965.41
2023-09-27T00:06:32.937Z,99967.57
2023-09-27T00:09:05.834Z,99966.59
2023-09-27T00:11:37.625Z,99967.71
2023-09-27T00:14:09.872Z,99972.65
2023-09-27T00:16:41.882Z,99974.24
2023-09-27T00:19:13.822Z,99968.88
2023-09-27T00:21:45.760Z,99966.69
2023-09-27T00:24:18.198Z,99960.89
2023-09-27T00:26:49.947Z,99957.05
2023-09-27T00:29:21.875Z,99958.77
2023-09-27T00:31:53.790Z,99959.11
2023-09-27T00:34:25.620Z,99965.45
2023-09-27T00:36:57.369Z,99962.20
2023-09-27T00:39:29.333Z,99964.14
2023-09-27T00:42:00.999Z,99961.25
2023-09-27T00:44:32.991Z,99960.55
2023-09-27T00:47:06.098Z,99961.88
2023-09-27T00:49:38.730Z,99958.45
2023-09-27T00:52:10.670Z,99961.79
2023-09-27T00:54:43.098Z,99962.95
2023-09-27T00:57:15.051Z,99957.27
2023-09-27T00:59:47.505Z,99954.36
2023-09-27T01:02:20.102Z,99960.59
2023-09-27T01:04:52.132Z,99963.64
2023-09-27T01:07:24.200Z,99969.20
2023-09-27T01:09:55.892Z,99965.48
2023-09-27T01:12:27.601Z,99970.48
2023-09-27T01:14:59.507Z,99969.77
2023-09-27T01:17:31.211Z,99964.84
2023-09-27T01:20:03.077Z,99957.05
2023-09-27T01:22:34.784Z,99946.90
2023-09-27T01:25:13.662Z,99939.13
2023-09-27T01:27:46.129Z,99939.14
2023-09-27T01:30:17.771Z,99933.29
2023-09-27T01:32:49.501Z,99931.23
2023-09-27T01:35:21.402Z,99935.91
2023-09-27T01:37:53.152Z,99941.39
2023-09-27T01:40:28.097Z,99945.75
2023-09-27T01:43:00.334Z,99947.79
2023-09-27T01:45:33.013Z,99943.04
2023-09-27T01:48:06.329Z,99943.89
2023-09-27T01:50:39.094Z,99947.40
2023-09-27T01:53:11.319Z,99950.92
2023-09-27T01:55:43.155Z,99950.02
2023-09-27T01:58:14.758Z,99945.52
2023-09-27T02:00:46.449Z,99943.88
2023-09-27T02:03:18.311Z,99941.02
2023-09-27T02:05:51.925Z,99939.30
2023-09-27T02:08:23.792Z,99936.39
2023-09-27T02:10:55.792Z,99943.30
2023-09-27T02:13:27.610Z,99950.41
2023-09-27T02:15:59.934Z,99957.68
2023-09-27T02:18:31.962Z,99964.61
2023-09-27T02:21:04.345Z,99980.21
2023-09-27T02:23:36.760Z,99986.06
2023-09-27T02:26:08.888Z,99984.64
2023-09-27T02:28:40.720Z,99984.48
2023-09-27T02:31:15.669Z,99985.05
2023-09-27T02:33:47.734Z,99985.08
2023-09-27T02:36:19.548Z,99988.25
2023-09-27T02:38:51.503Z,99989.48
2023-09-27T02:41:23.367Z,99991.25
2023-09-27T02:43:55.138Z,99993.05
2023-09-27T02:46:26.946Z,99993.73
2023-09-27T02:48:58.690Z,99991.98
2023-09-27T02:51:30.476Z,99999.79
2023-09-27T02:54:02.508Z,100007.24
2023-09-27T02:56:34.381Z,100008.31
2023-09-27T02:59:06.199Z,100010.08
2023-09-27T03:01:39.437Z,100011.48
2023-09-27T03:04:12.190Z,100006.71
2023-09-27T03:06:44.062Z,100010.98
2023-09-27T03:09:17.268Z,100012.02
2023-09-27T03:11:49.394Z,100020.17
2023-09-27T03:14:21.231Z,100026.33
2023-09-27T03:16:52.865Z,100028.81
2023-09-27T03:19:25.892Z,100035.40
2023-09-27T03:21:57.557Z,100047.82
2023-09-27T03:24:30.620Z,100061.27
2023-09-27T03:27:04.276Z,100064.81
2023-09-27T03:29:36.752Z,100054.90
2023-09-27T03:32:08.592Z,100038.41
2023-09-27T03:34:40.579Z,100023.89
2023-09-27T03:37:12.239Z,100021.23
2023-09-27T03:39:43.824Z,100019.30
2023-09-27T03:42:15.576Z,100018.40
2023-09-27T03:44:48.188Z,100018.23
2023-09-27T03:47:20.227Z,100020.69
2023-09-27T03:49:52.099Z,100023.17
2023-09-27T03:52:23.998Z,100022.64
2023-09-27T03:54:56.373Z,100020.30
2023-09-27T03:57:28.334Z,100017.47
2023-09-27T03:59:59.996Z,100015.02
2023-09-27T04:02:33.101Z,100010.20
2023-09-27T04:05:05.717Z,100006.67
2023-09-27T04:07:38.029Z,99998.89
2023-09-27T04:10:13.048Z,99996.43
2023-09-27T04:12:45.186Z,99993.97
2023-09-27T04:15:17.571Z,99998.04
2023-09-27T04:17:49.432Z,99994.84
2023-09-27T04:20:23.040Z,99998.56
2023-09-27T04:22:54.790Z,100005.65
2023-09-27T04:25:27.188Z,100010.43
2023-09-27T04:27:59.210Z,100019.64
2023-09-27T04:30:31.065Z,100022.66
2023-09-27T04:33:02.806Z,100024.80
2023-09-27T04:35:34.911Z,100024.77
2023-09-27T04:38:08.697Z,100021.58
2023-09-27T04:40:40.728Z,100018.56
2023-09-27T04:43:12.590Z,100013.41
2023-09-27T04:45:44.679Z,100009.70
2023-09-27T04:48:16.430Z,100010.77
2023-09-27T04:50:48.191Z,100014.31
2023-09-27T04:53:20.072Z,100015.75
2023-09-27T04:55:52.297Z,100020.35
2023-09-27T04:58:24.084Z,100023.67
2023-09-27T05:00:56.102Z,100021.89
2023-09-27T05:03:28.177Z,100023.11
2023-09-27T05:06:00.106Z,100025.25
2023-09-27T05:08:32.152Z,100020.12
2023-09-27T05:11:04.157Z,100015.70
2023-09-27T05:13:36.032Z,100024.02
2023-09-27T05:16:08.396Z,100027.21
2023-09-27T05:18:40.530Z,100028.64
2023-09-27T05:21:12.207Z,100024.41
2023-09-27T05:23:44.860Z,100021.23
2023-09-27T05:26:16.652Z,100023.55
2023-09-27T05:28:48.316Z,100016.10
2023-09-27T05:31:20.189Z,100019.99
2023-09-27T05:33:52.020Z,100017.52
2023-09-27T05:36:23.725Z,100029.21
2023-09-27T05:38:55.426Z,100034.88
2023-09-27T05:41:27.648Z,100036.46
2023-09-27T05:43:59.741Z,100040.73
2023-09-27T05:46:33.548Z,100036.64
2023-09-27T05:49:09.398Z,100034.35
2023-09-27T05:51:41.704Z,100031.14
2023-09-27T05:54:13.731Z,100033.79
2023-09-27T05:56:47.251Z,100038.05
2023-09-27T05:59:19.139Z,100036.48
2023-09-27T06:01:52.820Z,100035.41
2023-09-27T06:04:25.065Z,100036.12
2023-09-27T06:06:59.104Z,100038.05
2023-09-27T06:09:30.827Z,100039.65
2023-09-27T06:12:02.555Z,100040.19
2023-09-27T06:14:34.511Z,100041.61
2023-09-27T06:17:07.385Z,100035.73
2023-09-27T06:19:40.469Z,100031.83
2023-09-27T06:22:14.739Z,100026.14
2023-09-27T06:24:47.529Z,100030.42
2023-09-27T06:27:19.248Z,100030.06
2023-09-27T06:29:52.360Z,100034.11
2023-09-27T06:32:24.423Z,100033.39
2023-09-27T06:34:56.230Z,100030.73
2023-09-27T06:37:29.253Z,100029.81
2023-09-27T06:40:00.894Z,100024.09
2023-09-27T06:42:32.776Z,100024.61
2023-09-27T06:45:05.392Z,100028.02
2023-09-27T06:47:39.605Z,100031.73
2023-09-27T06:50:13.468Z,100029.96
2023-09-27T06:52:46.985Z,100022.65
2023-09-27T06:55:19.947Z,100022.58
2023-09-27T06:57:53.645Z,100022.64
2023-09-27T07:00:26.295Z,100021.67
2023-09-27T07:02:58.667Z,100021.58
2023-09-27T07:05:31.197Z,100019.27
2023-09-27T07:08:03.497Z,100019.15
2023-09-27T07:10:35.760Z,100016.79
2023-09-27T07:13:07.931Z,100010.76
2023-09-27T07:15:39.970Z,100007.95
2023-09-27T07:18:11.708Z,100004.77
2023-09-27T07:20:44.870Z,100000.23
2023-09-27T07:23:17.001Z,99999.27
2023-09-27T07:25:49.545Z,99997.46
2023-09-27T07:28:21.191Z,100003.58
2023-09-27T07:30:54.335Z,100009.09
2023-09-27T07:33:26.935Z,100012.68
2023-09-27T07:35:59.852Z,99996.15
2023-09-27T07:38:31.683Z,99987.75
2023-09-27T07:41:03.958Z,99983.89
2023-09-27T07:43:35.769Z,99978.81
2023-09-27T07:46:08.469Z,99983.41
2023-09-27T07:48:42.797Z,99992.85
2023-09-27T07:51:19.421Z,99999.10
2023-09-27T07:53:51.219Z,99994.83
2023-09-27T07:56:25.018Z,99985.45
2023-09-27T07:58:57.284Z,99978.73
2023-09-27T08:01:29.353Z,99976.96
2023-09-27T08:04:11.065Z,99985.23
2023-09-27T08:06:46.629Z,99996.86
2023-09-27T08:09:35.160Z,100004.87
2023-09-27T08:12:10.157Z,100010.34
2023-09-27T08:14:41.922Z,100013.64
2023-09-27T08:17:13.890Z,100009.88
2023-09-27T08:19:45.651Z,100010.18
2023-09-27T08:22:17.552Z,100008.75
2023-09-27T08:24:49.297Z,100007.24
2023-09-27T08:27:23.792Z,100004.40
2023-09-27T08:29:55.914Z,100006.35
2023-09-27T08:32:27.771Z,100007.38
2023-09-27T08:34:59.724Z,100010.44
2023-09-27T08:37:32.606Z,100009.82
2023-09-27T08:40:06.370Z,100009.26
2023-09-27T08:42:38.880Z,100006.14
2023-09-27T08:45:15.347Z,100003.19
2023-09-27T08:47:49.835Z,99993.46
2023-09-27T08:50:22.302Z,99984.54
2023-09-27T08:52:54.922Z,99977.21
2023-09-27T08:55:26.998Z,99978.26
2023-09-27T08:58:00.578Z,99977.91
2023-09-27T09:00:34.056Z,99974.09
2023-09-27T09:03:07.093Z,99967.99
2023-09-27T09:05:41.026Z,99962.39
2023-09-27T09:08:13.851Z,99964.87
2023-09-27T09:10:46.956Z,99969.09
2023-09-27T09:13:22.998Z,99963.70
2023-09-27T09:15:54.824Z,99963.84
2023-09-27T09:18:32.543Z,99969.66
2023-09-27T09:21:10.990Z,99970.77
2023-09-27T09:23:48.945Z,99979.33
2023-09-27T09:26:31.746Z,99976.90
2023-09-27T09:29:03.932Z,99974.52
2023-09-27T09:31:36.179Z,99967.34
2023-09-27T09:34:09.920Z,99968.08
2023-09-27T09:36:41.695Z,99964.63
2023-09-27T09:39:15.461Z,99959.09
2023-09-27T09:41:53.367Z,99954.64
2023-09-27T09:44:26.419Z,99949.84
2023-09-27T09:47:11.162Z,99953.40
2023-09-27T09:49:43.917Z,99955.79
2023-09-27T09:52:18.440Z,99958.48
2023-09-27T09:54:57.179Z,99962.40
2023-09-27T09:57:52.148Z,99958.91
2023-09-27T10:00:29.028Z,99952.67
2023-09-27T10:03:07.018Z,99954.48
2023-09-27T10:05:40.861Z,99959.97
2023-09-27T10:08:12.726Z,99957.28
2023-09-27T10:10:45.073Z,99953.61
2023-09-27T10:13:19.312Z,99950.83
2023-09-27T10:15:52.062Z,99950.05
2023-09-27T10:18:38.169Z,99950.79
2023-09-27T10:21:14.176Z,99948.38
2023-09-27T10:24:03.771Z,99942.20
2023-09-27T10:26:39.072Z,99940.02
2023-09-27T10:29:18.789Z,99939.45
2023-09-27T10:32:24.106Z,99934.65
2023-09-27T10:34:56.334Z,99933.41
2023-09-27T10:38:00.767Z,99938.42
2023-09-27T10:40:44.195Z,99936.22
2023-09-27T10:43:42.122Z,99933.30
2023-09-27T10:46:12.990Z,99932.89
2023-09-27T10:48:44.717Z,99929.95
2023-09-27T10:51:16.453Z,99926.38
2023-09-27T10:53:49.555Z,99918.88
2023-09-27T10:56:21.923Z,99908.02
2023-09-27T10:58:54.312Z,99907.81
2023-09-27T11:01:26.962Z,99905.79
2023-09-27T11:04:03.140Z,99898.50
2023-09-27T11:06:35.612Z,99896.02
2023-09-27T11:09:13.427Z,99892.77
2023-09-27T11:11:47.884Z,99893.16
2023-09-27T11:14:32.407Z,99892.61
2023-09-27T11:17:19.461Z,99893.77
2023-09-27T11:19:51.574Z,99887.17
2023-09-27T11:22:30.760Z,99881.34
2023-09-27T11:25:02.846Z,99874.31
2023-09-27T11:27:35.343Z,99868.19
2023-09-27T11:30:09.412Z,99862.38
2023-09-27T11:32:53.405Z,99857.64
2023-09-27T11:35:27.934Z,99851.33
2023-09-27T11:38:11.766Z,99846.63
2023-09-27T11:40:45.329Z,99843.61
2023-09-27T11:43:18.899Z,99844.64
2023-09-27T11:45:52.069Z,99833.52
2023-09-27T11:48:36.104Z,99827.32
2023-09-27T11:51:08.552Z,99824.25
2023-09-27T11:53:40.583Z,99814.40
2023-09-27T11:56:12.690Z,99809.31
2023-09-27T11:58:44.318Z,99803.16
2023-09-27T12:01:16.076Z,99801.30
2023-09-27T12:03:49.435Z,99799.31
2023-09-27T12:06:26.338Z,99792.30
2023-09-27T12:08:59.613Z,99788.57
2023-09-27T12:11:31.627Z,99786.52
2023-09-27T12:14:03.442Z,99791.61
2023-09-27T12:16:35.258Z,99785.38
2023-09-27T12:19:07.292Z,99782.08
2023-09-27T12:21:40.677Z,99776.63
2023-09-27T12:24:12.658Z,99770.50
2023-09-27T12:26:44.572Z,99766.52
2023-09-27T12:29:16.545Z,99762.17
2023-09-27T12:31:48.363Z,99757.96
2023-09-27T12:34:20.811Z,99758.33
2023-09-27T12:36:52.566Z,99751.84
2023-09-27T12:39:24.188Z,99749.98
2023-09-27T12:42:01.441Z,99748.67
2023-09-27T12:44:33.238Z,99747.39
2023-09-27T12:47:05.276Z,99751.75
2023-09-27T12:49:36.986Z,99743.86
2023-09-27T12:52:08.846Z,99743.52
2023-09-27T12:54:40.845Z,99739.58
2023-09-27T12:57:12.581Z,99738.94
2023-09-27T12:59:44.492Z,99743.77
2023-09-27T13:02:16.445Z,99739.20
2023-09-27T13:04:48.816Z,99735.48
2023-09-27T13:07:20.592Z,99731.44
2023-09-27T13:09:52.324Z,99723.75
2023-09-27T13:12:24.529Z,99723.26
2023-09-27T13:14:57.667Z,99721.52
2023-09-27T13:17:29.715Z,99719.94
2023-09-27T13:20:01.454Z,99716.09
2023-09-27T13:22:33.277Z,99709.91
2023-09-27T13:25:07.499Z,99704.91
2023-09-27T13:27:40.817Z,99695.58
2023-09-27T13:30:29.659Z,99689.94
2023-09-27T13:33:07.323Z,99682.98
2023-09-27T13:35:39.550Z,99681.06
2023-09-27T13:38:12.979Z,99684.36
2023-09-27T13:40:45.602Z,99684.94
2023-09-27T13:43:17.285Z,99684.98
2023-09-27T13:45:49.061Z,99683.61
2023-09-27T13:48:21.303Z,99681.45
2023-09-27T13:50:53.220Z,99681.05
2023-09-27T13:53:24.909Z,99678.40
2023-09-27T13:55:56.689Z,99675.30
2023-09-27T13:58:28.637Z,99672.98
2023-09-27T14:01:00.713Z,99670.45
2023-09-27T14:03:32.754Z,99669.94
2023-09-27T14:06:05.390Z,99671.86
2023-09-27T14:08:37.536Z,99666.55
2023-09-27T14:11:16.113Z,99663.79
2023-09-27T14:13:48.600Z,99666.70
2023-09-27T14:16:21.615Z,99661.67
2023-09-27T14:18:54.813Z,99653.73
2023-09-27T14:21:26.998Z,99649.59
2023-09-27T14:23:58.847Z,99647.09
2023-09-27T14:26:31.515Z,99647.38
2023-09-27T14:29:04.816Z,99637.80
2023-09-27T14:31:36.715Z,99638.99
2023-09-27T14:34:09.345Z,99636.02
2023-09-27T14:36:41.434Z,99636.02
2023-09-27T14:39:14.437Z,99632.48
2023-09-27T14:41:47.691Z,99631.98
2023-09-27T14:44:19.353Z,99631.33
2023-09-27T14:46:51.287Z,99627.04
2023-09-27T14:49:23.518Z,99619.98
2023-09-27T14:51:55.400Z,99615.59
2023-09-27T14:54:27.105Z,99605.09
2023-09-27T14:56:59.675Z,99603.90
2023-09-27T14:59:31.644Z,99604.73
2023-09-27T15:02:03.432Z,99602.42
2023-09-27T15:04:35.849Z,99601.23
2023-09-27T15:07:08.101Z,99600.84
2023-09-27T15:09:39.925Z,99604.00
2023-09-27T15:12:11.616Z,99603.95
2023-09-27T15:14:43.657Z,99600.73
2023-09-27T15:17:18.115Z,99601.75
2023-09-27T15:19:50.175Z,99598.23
2023-09-27T15:22:22.132Z,99600.20
2023-09-27T15:24:53.857Z,99600.33
2023-09-27T15:27:25.532Z,99597.80
2023-09-27T15:29:57.988Z,99595.80
2023-09-27T15:32:30.436Z,99589.80
2023-09-27T15:35:02.520Z,99590.29
2023-09-27T15:37:34.367Z,99589.55
2023-09-27T15:40:07.747Z,99584.52
2023-09-27T15:42:39.563Z,99578.25
2023-09-27T15:45:13.317Z,99576.09
2023-09-27T15:47:45.171Z,99575.48
2023-09-27T15:50:17.359Z,99574.46
2023-09-27T15:52:49.624Z,99574.75
2023-09-27T15:55:21.615Z,99575.84
2023-09-27T15:57:54.657Z,99571.44
2023-09-27T16:00:27.226Z,99574.13
2023-09-27T16:02:59.831Z,99572.40
2023-09-27T16:05:32.951Z,99575.17
2023-09-27T16:08:05.484Z,99573.43
2023-09-27T16:10:49.242Z,99576.50
2023-09-27T16:13:26.602Z,99574.95
2023-09-27T16:15:58.582Z,99576.98
2023-09-27T16:18:30.414Z,99578.41
2023-09-27T16:21:03.196Z,99582.39
2023-09-27T16:23:35.040Z,99582.91
2023-09-27T16:26:08.333Z,99580.16
2023-09-27T16:28:40.473Z,99580.01
2023-09-27T16:31:12.917Z,99584.14
2023-09-27T16:33:47.977Z,99579.95
2023-09-27T16:36:23.357Z,99580.04
2023-09-27T16:38:55.436Z,99583.87
2023-09-27T16:41:27.568Z,99585.90
2023-09-27T16:44:00.425Z,99586.74
2023-09-27T16:46:32.273Z,99593.87
2023-09-27T16:49:05.216Z,99594.65
2023-09-27T16:51:42.232Z,99600.86
2023-09-27T16:54:16.033Z,99604.63
2023-09-27T16:56:47.997Z,99602.91
2023-09-27T16:59:19.854Z,99606.89
2023-09-27T17:01:51.692Z,99603.83
2023-09-27T17:04:23.717Z,99608.27
2023-09-27T17:06:55.633Z,99610.90
2023-09-27T17:09:27.829Z,99616.52
2023-09-27T17:12:00.164Z,99615.40
2023-09-27T17:14:32.481Z,99621.10
2023-09-27T17:17:04.393Z,99619.95
2023-09-27T17:19:36.431Z,99615.40
2023-09-27T17:22:08.984Z,99615.63
2023-09-27T17:24:41.037Z,99615.66
2023-09-27T17:27:12.814Z,99619.60
2023-09-27T17:29:44.948Z,99621.09
2023-09-27T17:32:16.805Z,99621.91
2023-09-27T17:34:48.692Z,99617.54
2023-09-27T17:37:20.566Z,99619.08
2023-09-27T17:39:52.589Z,99612.28
2023-09-27T17:42:24.751Z,99613.39
2023-09-27T17:44:56.399Z,99612.98
2023-09-27T17:47:28.102Z,99612.64
2023-09-27T17:50:00.228Z,99612.13
2023-09-27T17:52:32.457Z,99612.71
2023-09-27T17:55:05.253Z,99608.84
2023-09-27T17:57:37.035Z,99606.38
2023-09-27T18:00:11.255Z,99605.74
2023-09-27T18:02:43.209Z,99601.77
2023-09-27T18:05:15.035Z,99605.10
2023-09-27T18:07:46.933Z,99610.27
2023-09-27T18:10:19.098Z,99611.28
2023-09-27T18:12:51.735Z,99613.86
2023-09-27T18:15:28.282Z,99617.11
2023-09-27T18:18:00.650Z,99614.55
2023-09-27T18:20:32.650Z,99616.87
2023-09-27T18:23:06.392Z,99612.77
2023-09-27T18:25:38.790Z,99614.34
2023-09-27T18:28:10.639Z,99609.20
2023-09-27T18:30:42.576Z,99606.27
2023-09-27T18:33:14.721Z,99608.13
2023-09-27T18:35:47.749Z,99611.64
2023-09-27T18:38:19.501Z,99609.59
2023-09-27T18:40:51.504Z,99611.84
2023-09-27T18:43:23.729Z,99610.17
2023-09-27T18:45:55.588Z,99609.99
2023-09-27T18:48:27.695Z,99609.44
2023-09-27T18:51:00.187Z,99605.30
2023-09-27T18:53:32.105Z,99613.30
2023-09-27T18:56:03.895Z,99613.80
2023-09-27T18:58:35.895Z,99616.11
2023-09-27T19:01:08.195Z,99612.95
2023-09-27T19:03:40.247Z,99613.08
2023-09-27T19:06:16.046Z,99613.80
2023-09-27T19:08:47.981Z,99604.81
2023-09-27T19:11:23.094Z,99601.72
2023-09-27T19:13:55.294Z,99595.58
2023-09-27T19:16:31.736Z,99596.64
2023-09-27T19:19:03.508Z,99594.34
2023-09-27T19:21:35.334Z,99587.63
2023-09-27T19:24:08.570Z,99589.14
2023-09-27T19:26:41.087Z,99591.08
2023-09-27T19:29:12.899Z,99596.83
2023-09-27T19:31:45.051Z,99595.95
2023-09-27T19:34:17.012Z,99602.14
2023-09-27T19:36:48.849Z,99600.88
2023-09-27T19:39:20.828Z,99605.39
2023-09-27T19:41:52.715Z,99606.88
2023-09-27T19:44:24.976Z,99604.41
2023-09-27T19:46:57.728Z,99608.72
2023-09-27T19:49:29.604Z,99606.98
2023-09-27T19:52:01.554Z,99607.36
2023-09-27T19:54:36.583Z,99612.46
2023-09-27T19:57:08.458Z,99617.42
2023-09-27T19:59:40.536Z,99617.21
2023-09-27T20:02:12.883Z,99618.23
2023-09-27T20:04:44.993Z,99617.04
2023-09-27T20:07:16.903Z,99614.66
2023-09-27T20:09:48.676Z,99615.19
2023-09-27T20:12:20.434Z,99620.73
2023-09-27T20:14:52.425Z,99626.49
2023-09-27T20:17:24.461Z,99625.02
2023-09-27T20:19:58.377Z,99622.79
2023-09-27T20:22:30.206Z,99617.42
2023-09-27T20:25:04.111Z,99617.61
2023-09-27T20:27:36.007Z,99620.20
2023-09-27T20:30:10.377Z,99625.04
2023-09-27T20:32:42.745Z,99621.73
2023-09-27T20:35:14.745Z,99621.74
2023-09-27T20:37:46.526Z,99615.65
2023-09-27T20:40:19.419Z,99614.04
2023-09-27T20:42:51.185Z,99617.89
2023-09-27T20:45:23.049Z,99613.98
2023-09-27T20:47:54.748Z,99611.41
2023-09-27T20:50:26.679Z,99608.46
2023-09-27T20:52:58.472Z,99603.13
2023-09-27T20:55:31.895Z,99601.58
2023-09-27T20:58:05.111Z,99600.02
2023-09-27T21:00:36.708Z,99598.46
2023-09-27T21:03:08.923Z,99599.41
2023-09-27T21:05:41.351Z,99594.23
2023-09-27T21:08:13.061Z,99592.05
2023-09-27T21:10:45.007Z,99589.36
2023-09-27T21:13:16.967Z,99594.62
2023-09-27T21:15:48.873Z,99591.69
2023-09-27T21:18:21.134Z,99588.42
2023-09-27T21:20:53.957Z,99591.68
2023-09-27T21:23:25.681Z,99591.73
2023-09-27T21:25:57.568Z,99592.31
2023-09-27T21:28:29.964Z,99583.05
2023-09-27T21:31:05.706Z,99579.75
2023-09-27T21:33:37.778Z,99577.02
2023-09-27T21:36:10.788Z,99575.81
2023-09-27T21:38:42.557Z,99575.75
2023-09-27T21:41:14.910Z,99574.73
2023-09-27T21:43:46.659Z,99568.61
2023-09-27T21:46:20.116Z,99570.14
2023-09-27T21:48:53.141Z,99567.23
2023-09-27T21:51:25.168Z,99560.96
2023-09-27T21:53:57.161Z,99566.42
2023-09-27T21:56:28.982Z,99563.68
2023-09-27T21:59:00.985Z,99562.13
2023-09-27T22:01:32.928Z,99561.83
2023-09-27T22:04:06.929Z,99561.52
2023-09-27T22:06:38.921Z,99559.39
2023-09-27T22:09:11.577Z,99555.53
2023-09-27T22:11:45.355Z,99552.44
2023-09-27T22:14:16.976Z,99551.96
2023-09-27T22:16:51.135Z,99545.38
2023-09-27T22:19:22.955Z,99544.76
2023-09-27T22:21:56.803Z,99540.75
2023-09-27T22:24:31.617Z,99539.91
2023-09-27T22:27:03.795Z,99540.33
2023-09-27T22:29:35.676Z,99534.89
2023-09-27T22:32:11.222Z,99535.48
2023-09-27T22:34:43.172Z,99540.25
2023-09-27T22:37:15.258Z,99541.10
2023-09-27T22:39:48.071Z,99536.30
2023-09-27T22:42:19.983Z,99539.30
2023-09-27T22:44:51.581Z,99545.03
2023-09-27T22:47:23.401Z,99542.55
2023-09-27T22:49:55.432Z,99543.22
2023-09-27T22:52:27.313Z,99552.03
2023-09-27T22:54:59.872Z,99552.29
2023-09-27T22:57:32.145Z,99554.20
2023-09-27T23:00:10.761Z,99550.13
2023-09-27T23:02:46.469Z,99548.48
2023-09-27T23:05:33.554Z,99545.36
2023-09-27T23:08:10.736Z,99546.55
2023-09-27T23:10:43.770Z,99551.60
2023-09-27T23:13:36.061Z,99552.90
2023-09-27T23:16:27.172Z,99552.69
2023-09-27T23:19:02.417Z,99546.97
2023-09-27T23:21:34.921Z,99551.21
2023-09-27T23:24:32.144Z,99556.48
2023-09-27T23:27:07.715Z,99562.72
2023-09-27T23:29:42.140Z,99562.63
2023-09-27T23:32:18.833Z,99562.42
2023-09-27T23:34:51.179Z,99565.36
2023-09-27T23:37:32.324Z,99563.14
2023-09-27T23:40:15.131Z,99560.45
2023-09-27T23:42:48.409Z,99557.06
2023-09-27T23:45:21.375Z,99560.67
2023-09-27T23:47:57.515Z,99555.05
2023-09-27T23:50:32.288Z,99549.24
2023-09-27T23:53:06.713Z,99541.95
2023-09-27T23:55:43.058Z,99541.52
2023-09-27T23:58:14.745Z,99536.18
